TimePDT,TemperatureF,Dew PointF,Humidity,Sea Level PressureIn,VisibilityMPH,Wind Direction,Wind SpeedMPH,Gust SpeedMPH,PrecipitationIn,Events,Conditions,WindDirDegrees,DateUTC
12:00 AM,44.6,37.4,76,30.00,20.0,West,3.5,-,N/A,,Mostly Cloudy,280,2013-03-26 07:00:00
1:00 AM,42.8,39.2,87,30.00,20.0,WNW,3.5,-,N/A,,Overcast,300,2013-03-26 08:00:00
2:00 AM,42.8,39.2,87,30.00,20.0,Calm,Calm,-,N/A,,Overcast,0,2013-03-26 09:00:00
3:00 AM,42.8,39.2,87,30.00,20.0,WNW,2.3,-,N/A,,Overcast,300,2013-03-26 10:00:00
3:21 AM,-9999,-9999,N/A,-9999,20.0,WNW,4.6,-,N/A,Rain,Light Rain,300,2013-03-26 10:21:00
4:00 AM,44.6,39.2,81,30.00,20.0,NW,3.5,-,N/A,,Overcast,310,2013-03-26 11:00:00
5:00 AM,44,39,76,30.00,19,Calm,Calm,,,,Partly Cloudy,,2013-03-26 12:00:00
5:00 AM,44.6,39.2,81,30.00,20.0,West,2.3,-,N/A,,Overcast,270,2013-03-26 12:00:00
6:00 AM,42.8,39.2,87,30.01,20.0,Calm,Calm,-,N/A,,Overcast,0,2013-03-26 13:00:00
7:00 AM,42.8,39.2,87,30.01,20.0,West,2.3,-,N/A,,Overcast,260,2013-03-26 14:00:00
8:00 AM,42.8,39.2,87,30.02,20.0,WNW,2.3,-,N/A,,Overcast,290,2013-03-26 15:00:00
9:00 AM,44.6,41.0,87,30.02,20.0,NW,2.3,-,N/A,,Overcast,320,2013-03-26 16:00:00
10:00 AM,46.4,42.8,87,30.03,20.0,NNE,2.3,-,N/A,,Mostly Cloudy,20,2013-03-26 17:00:00
11:00 AM,48,43,75,30.04,19,NNE,4.6,,,,Overcast,30,2013-03-26 18:00:00
11:00 AM,48.2,42.8,82,30.04,20.0,NE,4.6,-,N/A,,Overcast,40,2013-03-26 18:00:00
12:00 PM,48.2,42.8,82,30.04,20.0,NNE,5.8,-,N/A,,Overcast,20,2013-03-26 19:00:00
1:00 PM,50.0,44.6,82,30.04,20.0,NNE,4.6,-,N/A,,Mostly Cloudy,20,2013-03-26 20:00:00
2:00 PM,50.0,42.8,76,30.04,20.0,NE,4.6,-,N/A,,Mostly Cloudy,50,2013-03-26 21:00:00
3:00 PM,51.8,42.8,71,30.03,20.0,NE,4.6,-,N/A,,Overcast,40,2013-03-26 22:00:00
4:00 PM,51.8,41.0,67,30.02,20.0,ENE,3.5,-,N/A,,Overcast,60,2013-03-26 23:00:00
5:00 PM,51,41,58,30.01,19,NE,3.5,,,,Overcast,40,2013-03-27 00:00:00
5:00 PM,51.8,41.0,67,30.01,20.0,NE,3.5,-,N/A,,Overcast,40,2013-03-27 00:00:00
6:00 PM,50.0,42.8,76,30.01,20.0,NNE,4.6,-,N/A,,Mostly Cloudy,20,2013-03-27 01:00:00
7:00 PM,50.0,42.8,76,30.00,20.0,North,4.6,-,N/A,,Mostly Cloudy,350,2013-03-27 02:00:00
8:00 PM,48.2,42.8,82,30.00,20.0,NNW,2.3,-,N/A,,Mostly Cloudy,330,2013-03-27 03:00:00
9:00 PM,50.0,41.0,71,30.00,20.0,West,2.3,-,N/A,,Mostly Cloudy,270,2013-03-27 04:00:00
10:00 PM,50.0,35.6,58,30.00,20.0,West,2.3,-,N/A,,Mostly Cloudy,260,2013-03-27 05:00:00
11:00 PM,48,39,62,30.00,19,WNW,2.3,,,,Partly Cloudy,290,2013-03-27 06:00:00
11:00 PM,48.2,39.2,71,30.00,20.0,WNW,2.3,-,N/A,,Mostly Cloudy,290,2013-03-27 06:00:00